sensor_id;sensor_type;location;lat;lon;timestamp;temperature;humidity
23609;DHT22;11982;50.810;4.442;2024-03-02T00:00:22;6.20;99.90
23609;DHT22;11982;50.810;4.442;2024-03-02T00:02:49;6.20;99.90
23609;DHT22;11982;50.810;4.442;2024-03-02T00:05:19;6.20;99.90
23609;DHT22;11982;50.810;4.442;2024-03-02T00:07:52;6.10;99.90
23609;DHT22;11982;50.810;4.442;2024-03-02T00:10:21;6.10;99.90
23609;DHT22;11982;50.810;4.442;2024-03-02T00:12:51;6.00;99.90
23609;DHT22;11982;50.810;4.442;2024-03-02T00:15:47;6.00;99.90
23609;DHT22;11982;50.810;4.442;2024-03-02T00:18:24;6.00;99.90
23609;DHT22;11982;50.810;4.442;2024-03-02T00:20:56;6.00;99.90
23609;DHT22;11982;50.810;4.442;2024-03-02T00:23:27;5.90;99.90
23609;DHT22;11982;50.810;4.442;2024-03-02T00:25:55;6.00;99.90
23609;DHT22;11982;50.810;4.442;2024-03-02T00:28:36;6.10;99.90
23609;DHT22;11982;50.810;4.442;2024-03-02T00:31:09;6.10;99.90
23609;DHT22;11982;50.810;4.442;2024-03-02T00:36:09;6.20;99.90
23609;DHT22;11982;50.810;4.442;2024-03-02T00:38:44;6.20;99.90
23609;DHT22;11982;50.810;4.442;2024-03-02T00:41:24;6.20;99.90
23609;DHT22;11982;50.810;4.442;2024-03-02T00:44:09;6.30;99.90
23609;DHT22;11982;50.810;4.442;2024-03-02T00:46:38;6.30;99.90
23609;DHT22;11982;50.810;4.442;2024-03-02T00:49:25;6.30;99.90
23609;DHT22;11982;50.810;4.442;2024-03-02T00:51:53;6.20;99.90
23609;DHT22;11982;50.810;4.442;2024-03-02T00:54:24;6.20;99.90
23609;DHT22;11982;50.810;4.442;2024-03-02T00:56:52;6.20;99.90
23609;DHT22;11982;50.810;4.442;2024-03-02T00:59:20;6.20;99.90
23609;DHT22;11982;50.810;4.442;2024-03-02T01:01:48;6.20;99.90
23609;DHT22;11982;50.810;4.442;2024-03-02T01:04:15;6.20;99.90
23609;DHT22;11982;50.810;4.442;2024-03-02T01:06:42;6.10;99.90
23609;DHT22;11982;50.810;4.442;2024-03-02T01:09:08;6.10;99.90
23609;DHT22;11982;50.810;4.442;2024-03-02T01:11:34;6.20;99.90
23609;DHT22;11982;50.810;4.442;2024-03-02T01:14:00;6.20;99.90
23609;DHT22;11982;50.810;4.442;2024-03-02T01:16:25;6.30;99.90
23609;DHT22;11982;50.810;4.442;2024-03-02T01:18:51;6.30;99.90
23609;DHT22;11982;50.810;4.442;2024-03-02T01:21:16;6.20;99.90
23609;DHT22;11982;50.810;4.442;2024-03-02T01:23:42;6.30;99.90
23609;DHT22;11982;50.810;4.442;2024-03-02T01:26:08;6.30;99.90
23609;DHT22;11982;50.810;4.442;2024-03-02T01:28:34;6.40;99.90
23609;DHT22;11982;50.810;4.442;2024-03-02T01:31:00;6.30;99.90
23609;DHT22;11982;50.810;4.442;2024-03-02T01:33:27;6.30;99.90
23609;DHT22;11982;50.810;4.442;2024-03-02T01:35:53;6.50;99.90
23609;DHT22;11982;50.810;4.442;2024-03-02T01:38:18;6.30;99.90
23609;DHT22;11982;50.810;4.442;2024-03-02T01:40:46;6.30;99.90
23609;DHT22;11982;50.810;4.442;2024-03-02T01:43:14;6.20;99.90
23609;DHT22;11982;50.810;4.442;2024-03-02T01:45:41;6.20;99.90
23609;DHT22;11982;50.810;4.442;2024-03-02T01:48:07;6.10;99.90
23609;DHT22;11982;50.810;4.442;2024-03-02T01:50:33;6.20;99.90
23609;DHT22;11982;50.810;4.442;2024-03-02T01:53:00;6.20;99.90
23609;DHT22;11982;50.810;4.442;2024-03-02T01:55:26;6.10;99.90
23609;DHT22;11982;50.810;4.442;2024-03-02T01:57:53;6.20;99.90
23609;DHT22;11982;50.810;4.442;2024-03-02T02:00:20;6.20;99.90
23609;DHT22;11982;50.810;4.442;2024-03-02T02:02:50;6.20;99.90
23609;DHT22;11982;50.810;4.442;2024-03-02T02:05:16;6.10;99.90
23609;DHT22;11982;50.810;4.442;2024-03-02T02:07:42;6.20;99.90
23609;DHT22;11982;50.810;4.442;2024-03-02T02:10:09;6.20;99.90
23609;DHT22;11982;50.810;4.442;2024-03-02T02:12:35;6.30;99.90
23609;DHT22;11982;50.810;4.442;2024-03-02T02:15:01;6.20;99.90
23609;DHT22;11982;50.810;4.442;2024-03-02T02:17:27;6.20;99.90
23609;DHT22;11982;50.810;4.442;2024-03-02T02:19:53;6.30;99.90
23609;DHT22;11982;50.810;4.442;2024-03-02T02:22:18;6.20;99.90
23609;DHT22;11982;50.810;4.442;2024-03-02T02:24:44;6.20;99.90
23609;DHT22;11982;50.810;4.442;2024-03-02T02:27:10;6.20;99.90
23609;DHT22;11982;50.810;4.442;2024-03-02T02:29:36;6.30;99.90
23609;DHT22;11982;50.810;4.442;2024-03-02T02:32:02;6.20;99.90
23609;DHT22;11982;50.810;4.442;2024-03-02T02:34:28;6.30;99.90
23609;DHT22;11982;50.810;4.442;2024-03-02T02:36:54;6.30;99.90
23609;DHT22;11982;50.810;4.442;2024-03-02T02:39:21;6.30;99.90
23609;DHT22;11982;50.810;4.442;2024-03-02T02:41:50;6.30;99.90
23609;DHT22;11982;50.810;4.442;2024-03-02T02:44:16;6.30;99.90
23609;DHT22;11982;50.810;4.442;2024-03-02T02:46:41;6.30;99.90
23609;DHT22;11982;50.810;4.442;2024-03-02T02:49:07;6.30;99.90
23609;DHT22;11982;50.810;4.442;2024-03-02T02:51:33;6.40;99.90
23609;DHT22;11982;50.810;4.442;2024-03-02T02:53:59;6.50;99.90
23609;DHT22;11982;50.810;4.442;2024-03-02T02:56:24;6.40;99.90
23609;DHT22;11982;50.810;4.442;2024-03-02T02:58:50;6.40;99.90
23609;DHT22;11982;50.810;4.442;2024-03-02T03:01:17;6.30;99.90
23609;DHT22;11982;50.810;4.442;2024-03-02T03:03:43;6.30;99.90
23609;DHT22;11982;50.810;4.442;2024-03-02T03:06:09;6.20;99.90
23609;DHT22;11982;50.810;4.442;2024-03-02T03:08:35;6.10;99.90
23609;DHT22;11982;50.810;4.442;2024-03-02T03:11:01;5.90;99.90
23609;DHT22;11982;50.810;4.442;2024-03-02T03:13:26;5.80;99.90
23609;DHT22;11982;50.810;4.442;2024-03-02T03:15:52;5.70;99.90
23609;DHT22;11982;50.810;4.442;2024-03-02T03:18:18;5.60;99.90
23609;DHT22;11982;50.810;4.442;2024-03-02T03:20:44;5.60;99.90
23609;DHT22;11982;50.810;4.442;2024-03-02T03:23:09;5.70;99.90
23609;DHT22;11982;50.810;4.442;2024-03-02T03:25:40;5.70;99.90
23609;DHT22;11982;50.810;4.442;2024-03-02T03:28:06;5.80;99.90
23609;DHT22;11982;50.810;4.442;2024-03-02T03:30:32;5.80;99.90
23609;DHT22;11982;50.810;4.442;2024-03-02T03:32:58;5.90;99.90
23609;DHT22;11982;50.810;4.442;2024-03-02T03:35:23;6.00;99.90
23609;DHT22;11982;50.810;4.442;2024-03-02T03:37:49;6.00;99.90
23609;DHT22;11982;50.810;4.442;2024-03-02T03:40:15;5.90;99.90
23609;DHT22;11982;50.810;4.442;2024-03-02T03:42:41;5.90;99.90
23609;DHT22;11982;50.810;4.442;2024-03-02T03:45:07;5.80;99.90
23609;DHT22;11982;50.810;4.442;2024-03-02T03:47:33;5.90;99.90
23609;DHT22;11982;50.810;4.442;2024-03-02T03:49:59;5.80;99.90
23609;DHT22;11982;50.810;4.442;2024-03-02T03:52:25;5.80;99.90
23609;DHT22;11982;50.810;4.442;2024-03-02T03:54:50;5.90;99.90
23609;DHT22;11982;50.810;4.442;2024-03-02T03:57:17;6.00;99.90
23609;DHT22;11982;50.810;4.442;2024-03-02T03:59:43;6.00;99.90
23609;DHT22;11982;50.810;4.442;2024-03-02T04:02:09;5.90;99.90
23609;DHT22;11982;50.810;4.442;2024-03-02T04:04:37;5.80;99.90
23609;DHT22;11982;50.810;4.442;2024-03-02T04:07:02;5.70;99.90
23609;DHT22;11982;50.810;4.442;2024-03-02T04:09:28;5.70;99.90
23609;DHT22;11982;50.810;4.442;2024-03-02T04:11:53;5.60;99.90
23609;DHT22;11982;50.810;4.442;2024-03-02T04:14:19;5.60;99.90
23609;DHT22;11982;50.810;4.442;2024-03-02T04:16:45;5.50;99.90
23609;DHT22;11982;50.810;4.442;2024-03-02T04:19:11;5.40;99.90
23609;DHT22;11982;50.810;4.442;2024-03-02T04:21:36;5.40;99.90
23609;DHT22;11982;50.810;4.442;2024-03-02T04:24:02;5.40;99.90
23609;DHT22;11982;50.810;4.442;2024-03-02T04:26:28;5.40;99.90
23609;DHT22;11982;50.810;4.442;2024-03-02T04:28:54;5.30;99.90
23609;DHT22;11982;50.810;4.442;2024-03-02T04:31:20;5.40;99.90
23609;DHT22;11982;50.810;4.442;2024-03-02T04:33:46;5.30;99.90
23609;DHT22;11982;50.810;4.442;2024-03-02T04:36:12;5.30;99.90
23609;DHT22;11982;50.810;4.442;2024-03-02T04:38:38;5.30;99.90
23609;DHT22;11982;50.810;4.442;2024-03-02T04:41:07;5.20;99.90
23609;DHT22;11982;50.810;4.442;2024-03-02T04:43:33;5.20;99.90
23609;DHT22;11982;50.810;4.442;2024-03-02T04:45:59;5.20;99.90
23609;DHT22;11982;50.810;4.442;2024-03-02T04:48:25;5.20;99.90
23609;DHT22;11982;50.810;4.442;2024-03-02T04:50:51;5.20;99.90
23609;DHT22;11982;50.810;4.442;2024-03-02T04:53:16;5.20;99.90
23609;DHT22;11982;50.810;4.442;2024-03-02T04:55:42;5.10;99.90
23609;DHT22;11982;50.810;4.442;2024-03-02T04:58:08;5.00;99.90
23609;DHT22;11982;50.810;4.442;2024-03-02T05:00:34;5.00;99.90
23609;DHT22;11982;50.810;4.442;2024-03-02T05:03:00;5.00;99.90
23609;DHT22;11982;50.810;4.442;2024-03-02T05:05:26;4.90;99.90
23609;DHT22;11982;50.810;4.442;2024-03-02T05:07:52;5.00;99.90
23609;DHT22;11982;50.810;4.442;2024-03-02T05:10:18;5.00;99.90
23609;DHT22;11982;50.810;4.442;2024-03-02T05:12:43;5.00;99.90
23609;DHT22;11982;50.810;4.442;2024-03-02T05:15:10;5.00;99.90
23609;DHT22;11982;50.810;4.442;2024-03-02T05:17:36;5.00;99.90
23609;DHT22;11982;50.810;4.442;2024-03-02T05:20:03;5.00;99.90
23609;DHT22;11982;50.810;4.442;2024-03-02T05:22:29;4.90;99.90
23609;DHT22;11982;50.810;4.442;2024-03-02T05:24:55;5.00;99.90
23609;DHT22;11982;50.810;4.442;2024-03-02T05:27:21;4.90;99.90
23609;DHT22;11982;50.810;4.442;2024-03-02T05:29:47;4.80;99.90
23609;DHT22;11982;50.810;4.442;2024-03-02T05:32:13;4.90;99.90
23609;DHT22;11982;50.810;4.442;2024-03-02T05:34:38;4.80;99.90
23609;DHT22;11982;50.810;4.442;2024-03-02T05:37:04;4.90;99.90
23609;DHT22;11982;50.810;4.442;2024-03-02T05:39:30;4.90;99.90
23609;DHT22;11982;50.810;4.442;2024-03-02T05:41:55;4.90;99.90
23609;DHT22;11982;50.810;4.442;2024-03-02T05:44:21;4.90;99.90
23609;DHT22;11982;50.810;4.442;2024-03-02T05:46:47;4.90;99.90
23609;DHT22;11982;50.810;4.442;2024-03-02T05:49:13;4.80;99.90
23609;DHT22;11982;50.810;4.442;2024-03-02T05:51:39;4.80;99.90
23609;DHT22;11982;50.810;4.442;2024-03-02T05:54:04;4.80;99.90
23609;DHT22;11982;50.810;4.442;2024-03-02T05:56:30;4.80;99.90
23609;DHT22;11982;50.810;4.442;2024-03-02T05:58:55;4.80;99.90
23609;DHT22;11982;50.810;4.442;2024-03-02T06:01:43;4.80;99.90
23609;DHT22;11982;50.810;4.442;2024-03-02T06:04:10;4.70;99.90
23609;DHT22;11982;50.810;4.442;2024-03-02T06:06:39;4.70;99.90
23609;DHT22;11982;50.810;4.442;2024-03-02T06:09:05;4.70;99.90
23609;DHT22;11982;50.810;4.442;2024-03-02T06:11:40;4.60;99.90
23609;DHT22;11982;50.810;4.442;2024-03-02T06:14:07;4.70;99.90
23609;DHT22;11982;50.810;4.442;2024-03-02T06:16:33;4.70;99.90
23609;DHT22;11982;50.810;4.442;2024-03-02T06:19:00;4.70;99.90
23609;DHT22;11982;50.810;4.442;2024-03-02T06:21:26;4.60;99.90
23609;DHT22;11982;50.810;4.442;2024-03-02T06:23:52;4.60;99.90
23609;DHT22;11982;50.810;4.442;2024-03-02T06:26:18;4.60;99.90
23609;DHT22;11982;50.810;4.442;2024-03-02T06:28:44;4.60;99.90
23609;DHT22;11982;50.810;4.442;2024-03-02T06:31:10;4.60;99.90
23609;DHT22;11982;50.810;4.442;2024-03-02T06:33:35;4.60;99.90
23609;DHT22;11982;50.810;4.442;2024-03-02T06:36:01;4.60;99.90
23609;DHT22;11982;50.810;4.442;2024-03-02T06:38:27;4.60;99.90
23609;DHT22;11982;50.810;4.442;2024-03-02T06:40:53;4.60;99.90
23609;DHT22;11982;50.810;4.442;2024-03-02T06:43:20;4.60;99.90
23609;DHT22;11982;50.810;4.442;2024-03-02T06:45:51;4.70;99.90
23609;DHT22;11982;50.810;4.442;2024-03-02T06:48:17;4.70;99.90
23609;DHT22;11982;50.810;4.442;2024-03-02T06:50:47;4.60;99.90
23609;DHT22;11982;50.810;4.442;2024-03-02T06:53:15;4.60;99.90
23609;DHT22;11982;50.810;4.442;2024-03-02T06:55:45;4.60;99.90
23609;DHT22;11982;50.810;4.442;2024-03-02T06:58:12;4.60;99.90
23609;DHT22;11982;50.810;4.442;2024-03-02T07:00:38;4.60;99.90
23609;DHT22;11982;50.810;4.442;2024-03-02T07:03:04;4.60;99.90
23609;DHT22;11982;50.810;4.442;2024-03-02T07:05:29;4.70;99.90
23609;DHT22;11982;50.810;4.442;2024-03-02T07:07:55;4.80;99.90
23609;DHT22;11982;50.810;4.442;2024-03-02T07:10:20;4.80;99.90
23609;DHT22;11982;50.810;4.442;2024-03-02T07:12:46;4.80;99.90
23609;DHT22;11982;50.810;4.442;2024-03-02T07:15:12;4.80;99.90
23609;DHT22;11982;50.810;4.442;2024-03-02T07:17:54;4.90;99.90
23609;DHT22;11982;50.810;4.442;2024-03-02T07:20:20;4.90;99.90
23609;DHT22;11982;50.810;4.442;2024-03-02T07:22:46;4.90;99.90
23609;DHT22;11982;50.810;4.442;2024-03-02T07:25:11;4.90;99.90
23609;DHT22;11982;50.810;4.442;2024-03-02T07:27:38;5.00;99.90
23609;DHT22;11982;50.810;4.442;2024-03-02T07:30:04;5.10;99.90
23609;DHT22;11982;50.810;4.442;2024-03-02T07:32:30;5.10;99.90
23609;DHT22;11982;50.810;4.442;2024-03-02T07:34:55;5.10;99.90
23609;DHT22;11982;50.810;4.442;2024-03-02T07:37:22;5.20;99.90
23609;DHT22;11982;50.810;4.442;2024-03-02T07:39:48;5.20;99.90
23609;DHT22;11982;50.810;4.442;2024-03-02T07:42:14;5.20;99.90
23609;DHT22;11982;50.810;4.442;2024-03-02T07:44:39;5.40;99.90
23609;DHT22;11982;50.810;4.442;2024-03-02T07:47:06;5.40;99.90
23609;DHT22;11982;50.810;4.442;2024-03-02T07:49:32;5.40;99.90
23609;DHT22;11982;50.810;4.442;2024-03-02T07:51:57;5.40;99.90
23609;DHT22;11982;50.810;4.442;2024-03-02T07:54:24;5.60;99.90
23609;DHT22;11982;50.810;4.442;2024-03-02T07:56:49;5.60;99.90
23609;DHT22;11982;50.810;4.442;2024-03-02T07:59:15;5.70;99.90
23609;DHT22;11982;50.810;4.442;2024-03-02T08:01:41;5.80;99.90
23609;DHT22;11982;50.810;4.442;2024-03-02T08:04:07;5.90;99.90
23609;DHT22;11982;50.810;4.442;2024-03-02T08:06:32;5.90;99.90
23609;DHT22;11982;50.810;4.442;2024-03-02T08:09:00;6.00;99.90
23609;DHT22;11982;50.810;4.442;2024-03-02T08:11:26;6.00;99.90
23609;DHT22;11982;50.810;4.442;2024-03-02T08:13:56;6.10;99.90
23609;DHT22;11982;50.810;4.442;2024-03-02T08:16:25;6.20;99.90
23609;DHT22;11982;50.810;4.442;2024-03-02T08:18:51;6.30;99.90
23609;DHT22;11982;50.810;4.442;2024-03-02T08:21:17;6.30;99.90
23609;DHT22;11982;50.810;4.442;2024-03-02T08:23:43;6.40;99.90
23609;DHT22;11982;50.810;4.442;2024-03-02T08:26:10;6.50;99.90
23609;DHT22;11982;50.810;4.442;2024-03-02T08:28:36;6.60;99.90
23609;DHT22;11982;50.810;4.442;2024-03-02T08:31:08;6.80;99.90
23609;DHT22;11982;50.810;4.442;2024-03-02T08:33:34;6.90;99.90
23609;DHT22;11982;50.810;4.442;2024-03-02T08:36:00;7.00;99.90
23609;DHT22;11982;50.810;4.442;2024-03-02T08:38:32;7.10;99.90
23609;DHT22;11982;50.810;4.442;2024-03-02T08:40:58;7.20;99.90
23609;DHT22;11982;50.810;4.442;2024-03-02T08:43:23;7.30;99.90
23609;DHT22;11982;50.810;4.442;2024-03-02T08:45:50;7.40;99.90
23609;DHT22;11982;50.810;4.442;2024-03-02T08:48:16;7.40;99.90
23609;DHT22;11982;50.810;4.442;2024-03-02T08:50:42;7.60;99.90
23609;DHT22;11982;50.810;4.442;2024-03-02T08:53:07;7.70;99.90
23609;DHT22;11982;50.810;4.442;2024-03-02T08:55:33;7.80;99.90
23609;DHT22;11982;50.810;4.442;2024-03-02T08:57:59;7.90;99.90
23609;DHT22;11982;50.810;4.442;2024-03-02T09:00:25;7.90;99.90
23609;DHT22;11982;50.810;4.442;2024-03-02T09:02:50;8.00;99.90
23609;DHT22;11982;50.810;4.442;2024-03-02T09:05:16;8.00;99.90
23609;DHT22;11982;50.810;4.442;2024-03-02T09:07:42;8.00;99.90
23609;DHT22;11982;50.810;4.442;2024-03-02T09:10:08;8.00;99.90
23609;DHT22;11982;50.810;4.442;2024-03-02T09:12:34;8.10;99.90
23609;DHT22;11982;50.810;4.442;2024-03-02T09:15:01;8.20;99.90
23609;DHT22;11982;50.810;4.442;2024-03-02T09:17:28;8.40;99.90
23609;DHT22;11982;50.810;4.442;2024-03-02T09:19:54;8.40;99.90
23609;DHT22;11982;50.810;4.442;2024-03-02T09:22:20;8.40;99.90
23609;DHT22;11982;50.810;4.442;2024-03-02T09:24:45;8.50;99.90
23609;DHT22;11982;50.810;4.442;2024-03-02T09:27:11;8.60;99.90
23609;DHT22;11982;50.810;4.442;2024-03-02T09:29:37;8.70;99.90
23609;DHT22;11982;50.810;4.442;2024-03-02T09:32:05;8.80;99.90
23609;DHT22;11982;50.810;4.442;2024-03-02T09:34:31;9.10;99.90
23609;DHT22;11982;50.810;4.442;2024-03-02T09:36:57;9.30;99.90
23609;DHT22;11982;50.810;4.442;2024-03-02T09:39:23;9.50;99.90
23609;DHT22;11982;50.810;4.442;2024-03-02T09:41:48;9.60;99.90
23609;DHT22;11982;50.810;4.442;2024-03-02T09:44:14;9.60;99.90
23609;DHT22;11982;50.810;4.442;2024-03-02T09:46:40;9.60;99.90
23609;DHT22;11982;50.810;4.442;2024-03-02T09:49:12;9.60;99.90
23609;DHT22;11982;50.810;4.442;2024-03-02T09:51:38;9.80;99.90
23609;DHT22;11982;50.810;4.442;2024-03-02T09:54:04;9.70;99.90
23609;DHT22;11982;50.810;4.442;2024-03-02T09:56:30;9.70;99.90
23609;DHT22;11982;50.810;4.442;2024-03-02T09:58:56;9.80;99.90
23609;DHT22;11982;50.810;4.442;2024-03-02T10:01:21;9.70;99.90
23609;DHT22;11982;50.810;4.442;2024-03-02T10:03:47;9.80;99.90
23609;DHT22;11982;50.810;4.442;2024-03-02T10:06:28;10.00;99.90
23609;DHT22;11982;50.810;4.442;2024-03-02T10:08:55;10.20;99.90
23609;DHT22;11982;50.810;4.442;2024-03-02T10:11:32;10.40;99.90
23609;DHT22;11982;50.810;4.442;2024-03-02T10:14:08;10.40;99.90
23609;DHT22;11982;50.810;4.442;2024-03-02T10:16:36;10.50;99.90
23609;DHT22;11982;50.810;4.442;2024-03-02T10:19:24;10.50;99.90
23609;DHT22;11982;50.810;4.442;2024-03-02T10:21:53;10.40;99.90
23609;DHT22;11982;50.810;4.442;2024-03-02T10:24:20;10.60;99.90
23609;DHT22;11982;50.810;4.442;2024-03-02T10:26:46;10.60;99.90
23609;DHT22;11982;50.810;4.442;2024-03-02T10:29:12;10.50;99.90
23609;DHT22;11982;50.810;4.442;2024-03-02T10:31:44;10.70;99.90
23609;DHT22;11982;50.810;4.442;2024-03-02T10:34:11;10.80;99.90
23609;DHT22;11982;50.810;4.442;2024-03-02T10:36:41;10.90;99.90
23609;DHT22;11982;50.810;4.442;2024-03-02T10:39:07;11.10;99.90
23609;DHT22;11982;50.810;4.442;2024-03-02T10:41:35;11.10;99.90
23609;DHT22;11982;50.810;4.442;2024-03-02T10:44:05;11.20;99.90
23609;DHT22;11982;50.810;4.442;2024-03-02T10:46:32;11.30;99.90
23609;DHT22;11982;50.810;4.442;2024-03-02T10:49:00;11.30;99.90
23609;DHT22;11982;50.810;4.442;2024-03-02T10:51:26;11.20;99.90
23609;DHT22;11982;50.810;4.442;2024-03-02T10:53:54;11.40;99.90
23609;DHT22;11982;50.810;4.442;2024-03-02T10:56:28;11.40;99.90
23609;DHT22;11982;50.810;4.442;2024-03-02T11:01:32;11.40;99.90
23609;DHT22;11982;50.810;4.442;2024-03-02T11:03:58;11.50;99.90
23609;DHT22;11982;50.810;4.442;2024-03-02T11:06:27;11.60;99.90
23609;DHT22;11982;50.810;4.442;2024-03-02T11:08:58;11.60;99.90
23609;DHT22;11982;50.810;4.442;2024-03-02T11:11:30;11.70;99.90
23609;DHT22;11982;50.810;4.442;2024-03-02T11:14:04;11.60;99.90
23609;DHT22;11982;50.810;4.442;2024-03-02T11:16:37;11.60;99.90
23609;DHT22;11982;50.810;4.442;2024-03-02T11:19:12;11.90;99.90
23609;DHT22;11982;50.810;4.442;2024-03-02T11:21:38;12.50;99.90
23609;DHT22;11982;50.810;4.442;2024-03-02T11:26:50;12.50;91.90
23609;DHT22;11982;50.810;4.442;2024-03-02T11:32:13;12.60;93.70
23609;DHT22;11982;50.810;4.442;2024-03-02T11:34:41;13.00;95.00
23609;DHT22;11982;50.810;4.442;2024-03-02T11:37:18;13.20;82.10
23609;DHT22;11982;50.810;4.442;2024-03-02T11:39:45;13.40;79.80
23609;DHT22;11982;50.810;4.442;2024-03-02T11:42:14;13.70;75.70
23609;DHT22;11982;50.810;4.442;2024-03-02T11:44:43;13.40;71.90
23609;DHT22;11982;50.810;4.442;2024-03-02T11:47:11;13.50;72.30
23609;DHT22;11982;50.810;4.442;2024-03-02T11:49:50;13.70;68.60
23609;DHT22;11982;50.810;4.442;2024-03-02T11:52:17;13.80;67.90
23609;DHT22;11982;50.810;4.442;2024-03-02T11:54:45;13.70;71.30
23609;DHT22;11982;50.810;4.442;2024-03-02T11:57:18;13.60;70.90
23609;DHT22;11982;50.810;4.442;2024-03-02T11:59:45;13.50;75.50
23609;DHT22;11982;50.810;4.442;2024-03-02T12:02:18;13.30;69.10
23609;DHT22;11982;50.810;4.442;2024-03-02T12:04:46;13.20;74.10
23609;DHT22;11982;50.810;4.442;2024-03-02T12:07:19;13.30;87.30
23609;DHT22;11982;50.810;4.442;2024-03-02T12:09:46;13.50;66.50
23609;DHT22;11982;50.810;4.442;2024-03-02T12:12:12;13.50;61.00
23609;DHT22;11982;50.810;4.442;2024-03-02T12:14:40;13.50;60.60
23609;DHT22;11982;50.810;4.442;2024-03-02T12:17:06;13.20;65.20
23609;DHT22;11982;50.810;4.442;2024-03-02T12:19:32;13.10;68.70
23609;DHT22;11982;50.810;4.442;2024-03-02T12:21:59;13.40;63.70
23609;DHT22;11982;50.810;4.442;2024-03-02T12:24:28;13.60;61.20
23609;DHT22;11982;50.810;4.442;2024-03-02T12:26:54;13.90;55.40
23609;DHT22;11982;50.810;4.442;2024-03-02T12:29:21;14.00;56.50
23609;DHT22;11982;50.810;4.442;2024-03-02T12:31:51;13.80;62.80
23609;DHT22;11982;50.810;4.442;2024-03-02T12:34:23;13.90;63.10
23609;DHT22;11982;50.810;4.442;2024-03-02T12:36:50;13.80;56.60
23609;DHT22;11982;50.810;4.442;2024-03-02T12:39:19;14.00;59.10
23609;DHT22;11982;50.810;4.442;2024-03-02T12:41:46;13.80;58.80
23609;DHT22;11982;50.810;4.442;2024-03-02T12:44:11;13.50;56.70
23609;DHT22;11982;50.810;4.442;2024-03-02T12:46:37;13.50;58.50
23609;DHT22;11982;50.810;4.442;2024-03-02T12:49:11;13.40;57.50
23609;DHT22;11982;50.810;4.442;2024-03-02T12:51:38;13.50;60.70
23609;DHT22;11982;50.810;4.442;2024-03-02T12:54:09;13.60;57.10
23609;DHT22;11982;50.810;4.442;2024-03-02T12:56:37;13.70;61.00
23609;DHT22;11982;50.810;4.442;2024-03-02T12:59:03;14.00;57.80
23609;DHT22;11982;50.810;4.442;2024-03-02T13:01:29;14.10;49.70
23609;DHT22;11982;50.810;4.442;2024-03-02T13:03:56;14.30;45.70
23609;DHT22;11982;50.810;4.442;2024-03-02T13:06:23;14.20;42.00
23609;DHT22;11982;50.810;4.442;2024-03-02T13:08:49;14.10;47.20
23609;DHT22;11982;50.810;4.442;2024-03-02T13:11:16;14.00;45.60
23609;DHT22;11982;50.810;4.442;2024-03-02T13:13:42;14.10;51.30
23609;DHT22;11982;50.810;4.442;2024-03-02T13:16:09;13.80;48.40
23609;DHT22;11982;50.810;4.442;2024-03-02T13:18:35;13.90;56.40
23609;DHT22;11982;50.810;4.442;2024-03-02T13:21:01;14.00;52.20
23609;DHT22;11982;50.810;4.442;2024-03-02T13:23:27;13.70;47.40
23609;DHT22;11982;50.810;4.442;2024-03-02T13:25:54;13.60;51.10
23609;DHT22;11982;50.810;4.442;2024-03-02T13:28:20;13.70;55.20
23609;DHT22;11982;50.810;4.442;2024-03-02T13:30:45;13.70;47.50
23609;DHT22;11982;50.810;4.442;2024-03-02T13:33:11;13.70;42.90
23609;DHT22;11982;50.810;4.442;2024-03-02T13:35:36;13.90;45.50
23609;DHT22;11982;50.810;4.442;2024-03-02T13:38:05;14.00;49.70
23609;DHT22;11982;50.810;4.442;2024-03-02T13:40:31;13.90;54.90
23609;DHT22;11982;50.810;4.442;2024-03-02T13:43:01;13.80;52.90
23609;DHT22;11982;50.810;4.442;2024-03-02T13:45:27;13.80;58.20
23609;DHT22;11982;50.810;4.442;2024-03-02T13:47:53;13.80;54.60
23609;DHT22;11982;50.810;4.442;2024-03-02T13:50:19;13.70;56.20
23609;DHT22;11982;50.810;4.442;2024-03-02T13:52:45;13.80;60.90
23609;DHT22;11982;50.810;4.442;2024-03-02T13:55:11;13.60;60.20
23609;DHT22;11982;50.810;4.442;2024-03-02T13:57:36;13.70;60.60
23609;DHT22;11982;50.810;4.442;2024-03-02T14:00:03;13.70;55.60
23609;DHT22;11982;50.810;4.442;2024-03-02T14:02:29;13.80;55.80
23609;DHT22;11982;50.810;4.442;2024-03-02T14:04:55;13.60;51.00
23609;DHT22;11982;50.810;4.442;2024-03-02T14:07:20;13.60;57.30
23609;DHT22;11982;50.810;4.442;2024-03-02T14:09:46;13.60;59.40
23609;DHT22;11982;50.810;4.442;2024-03-02T14:12:12;13.50;57.90
23609;DHT22;11982;50.810;4.442;2024-03-02T14:14:39;13.40;65.10
23609;DHT22;11982;50.810;4.442;2024-03-02T14:17:04;13.30;63.60
23609;DHT22;11982;50.810;4.442;2024-03-02T14:19:31;13.30;62.40
23609;DHT22;11982;50.810;4.442;2024-03-02T14:21:58;13.10;87.60
23609;DHT22;11982;50.810;4.442;2024-03-02T14:24:23;13.00;98.90
23609;DHT22;11982;50.810;4.442;2024-03-02T14:26:51;12.90;96.80
23609;DHT22;11982;50.810;4.442;2024-03-02T14:29:18;12.90;94.00
23609;DHT22;11982;50.810;4.442;2024-03-02T14:31:43;13.00;96.30
23609;DHT22;11982;50.810;4.442;2024-03-02T14:34:13;13.00;96.10
23609;DHT22;11982;50.810;4.442;2024-03-02T14:36:39;12.90;99.90
23609;DHT22;11982;50.810;4.442;2024-03-02T14:39:05;12.70;99.90
23609;DHT22;11982;50.810;4.442;2024-03-02T14:41:38;12.70;99.90
23609;DHT22;11982;50.810;4.442;2024-03-02T14:44:04;12.70;99.90
23609;DHT22;11982;50.810;4.442;2024-03-02T14:46:30;12.90;99.90
23609;DHT22;11982;50.810;4.442;2024-03-02T14:48:55;13.30;99.90
23609;DHT22;11982;50.810;4.442;2024-03-02T14:51:21;13.70;97.40
23609;DHT22;11982;50.810;4.442;2024-03-02T14:53:47;13.90;97.60
23609;DHT22;11982;50.810;4.442;2024-03-02T14:56:12;14.00;96.70
23609;DHT22;11982;50.810;4.442;2024-03-02T14:58:41;14.00;92.40
23609;DHT22;11982;50.810;4.442;2024-03-02T15:01:10;13.90;78.10
23609;DHT22;11982;50.810;4.442;2024-03-02T15:03:36;13.70;93.00
23609;DHT22;11982;50.810;4.442;2024-03-02T15:06:02;13.40;98.60
23609;DHT22;11982;50.810;4.442;2024-03-02T15:08:29;13.30;99.90
23609;DHT22;11982;50.810;4.442;2024-03-02T15:10:55;13.20;99.90
23609;DHT22;11982;50.810;4.442;2024-03-02T15:13:21;13.00;99.90
23609;DHT22;11982;50.810;4.442;2024-03-02T15:15:47;12.60;99.90
23609;DHT22;11982;50.810;4.442;2024-03-02T15:18:13;12.50;99.90
23609;DHT22;11982;50.810;4.442;2024-03-02T15:20:41;12.30;99.90
23609;DHT22;11982;50.810;4.442;2024-03-02T15:23:07;12.10;99.90
23609;DHT22;11982;50.810;4.442;2024-03-02T15:25:33;11.80;99.90
23609;DHT22;11982;50.810;4.442;2024-03-02T15:27:58;11.80;99.90
23609;DHT22;11982;50.810;4.442;2024-03-02T15:30:24;11.80;99.90
23609;DHT22;11982;50.810;4.442;2024-03-02T15:32:50;11.70;99.90
23609;DHT22;11982;50.810;4.442;2024-03-02T15:35:17;11.80;99.90
23609;DHT22;11982;50.810;4.442;2024-03-02T15:37:45;11.90;99.90
23609;DHT22;11982;50.810;4.442;2024-03-02T15:40:11;12.10;99.90
23609;DHT22;11982;50.810;4.442;2024-03-02T15:42:36;12.20;99.90
23609;DHT22;11982;50.810;4.442;2024-03-02T15:45:02;12.20;99.90
23609;DHT22;11982;50.810;4.442;2024-03-02T15:47:28;12.20;99.90
23609;DHT22;11982;50.810;4.442;2024-03-02T15:49:54;12.30;99.90